Time;durP1;ratioP1;P1;durP2;ratioP2;P2;SDS_P1;SDS_P2;PMS_P1;PMS_P2;Temp;Humidity;BMP_temperature;BMP_pressure;BME280_temperature;BME280_humidity;BME280_pressure;Samples;Min_cycle;Max_cycle;Signal;HPM_P1;HPM_P2
2022/09/24 00:01:54;;;;;;;10.75;7.35;;;14.30;91.00;;;;;;4895428;29;20470;-87
2022/09/24 00:04:24;;;;;;;10.30;6.38;;;14.30;91.10;;;;;;4871591;29;20048;-86
2022/09/24 00:06:52;;;;;;;11.02;6.70;;;14.30;91.10;;;;;;4894378;29;20040;-87
2022/09/24 00:09:22;;;;;;;9.30;6.35;;;14.20;91.10;;;;;;4910197;29;20524;-87
2022/09/24 00:11:51;;;;;;;9.77;6.00;;;14.20;91.10;;;;;;4883455;29;20762;-86
2022/09/24 00:14:18;;;;;;;10.30;6.35;;;14.20;91.20;;;;;;4870627;29;20052;-86
2022/09/24 00:16:45;;;;;;;9.68;5.80;;;14.20;91.20;;;;;;4877795;29;20136;-87
2022/09/24 00:19:13;;;;;;;10.60;6.13;;;14.20;91.30;;;;;;4883487;29;20064;-86
2022/09/24 00:21:42;;;;;;;8.57;5.45;;;14.20;91.30;;;;;;4887326;29;20416;-86
2022/09/24 00:26:48;;;;;;;9.32;5.95;;;14.20;91.30;;;;;;4883620;29;20040;-86
2022/09/24 00:27:04;;;;;;;9.48;6.05;;;14.20;91.30;;;;;;4897727;29;20064;-86
2022/09/24 00:29:34;;;;;;;9.93;5.88;;;14.20;91.40;;;;;;4884066;29;20048;-87
2022/09/24 00:32:05;;;;;;;9.15;5.40;;;14.20;91.40;;;;;;4878289;29;20482;-87
2022/09/24 00:34:33;;;;;;;9.10;5.60;;;14.20;91.40;;;;;;4883245;29;20053;-87
2022/09/24 00:37:00;;;;;;;8.75;5.53;;;14.20;91.40;;;;;;4879154;29;20127;-87
2022/09/24 00:39:27;;;;;;;10.25;6.20;;;14.20;91.40;;;;;;4901533;29;20078;-86
2022/09/24 00:41:55;;;;;;;10.93;6.07;;;14.20;91.40;;;;;;4901589;29;20036;-87
2022/09/24 00:44:49;;;;;;;9.82;6.07;;;14.20;91.50;;;;;;4882720;29;20045;-87
2022/09/24 00:47:26;;;;;;;9.07;5.43;;;14.20;91.50;;;;;;4879942;29;20459;-86
2022/09/24 00:50:08;;;;;;;10.98;6.38;;;14.20;91.50;;;;;;4879065;29;20063;-87
2022/09/24 00:52:41;;;;;;;8.57;5.35;;;14.20;91.50;;;;;;4875299;29;20112;-87
2022/09/24 00:55:12;;;;;;;10.63;5.93;;;14.20;91.50;;;;;;4878883;29;20131;-87
2022/09/24 00:57:40;;;;;;;9.77;5.88;;;14.20;91.50;;;;;;4879535;29;20049;-87
2022/09/24 01:00:10;;;;;;;9.98;5.70;;;14.20;91.60;;;;;;4881777;29;20053;-86
2022/09/24 01:02:43;;;;;;;10.50;6.35;;;14.20;91.60;;;;;;4863457;29;20076;-87
2022/09/24 01:05:10;;;;;;;11.65;6.93;;;14.10;91.60;;;;;;4891790;29;20058;-87
2022/09/24 01:07:37;;;;;;;10.77;6.60;;;14.10;91.60;;;;;;4848639;29;20139;-87
2022/09/24 01:10:05;;;;;;;10.73;5.85;;;14.10;91.60;;;;;;4863081;29;20049;-87
2022/09/24 01:12:39;;;;;;;10.15;5.97;;;14.10;91.60;;;;;;4848695;29;20085;-87
2022/09/24 01:15:12;;;;;;;10.82;6.03;;;14.10;91.70;;;;;;4882279;29;20112;-87
2022/09/24 01:18:09;;;;;;;10.95;6.18;;;14.10;91.70;;;;;;4893147;29;20040;-87
2022/09/24 01:21:07;;;;;;;9.80;6.05;;;14.10;91.70;;;;;;4879117;29;20049;-87
2022/09/24 01:24:12;;;;;;;9.98;5.75;;;14.10;91.70;;;;;;4866405;29;20131;-87
2022/09/24 01:27:12;;;;;;;9.23;5.32;;;14.10;92.00;;;;;;4876253;29;20055;-87
2022/09/24 01:29:45;;;;;;;9.52;5.68;;;14.00;91.70;;;;;;4893242;29;20056;-87
2022/09/24 01:32:21;;;;;;;10.23;5.80;;;14.00;91.70;;;;;;4873912;29;20104;-86
2022/09/24 01:35:05;;;;;;;10.75;6.45;;;14.00;91.70;;;;;;4881586;29;20052;-86
2022/09/24 01:37:35;;;;;;;10.60;6.28;;;14.00;91.70;;;;;;4883043;29;20108;-87
2022/09/24 01:40:05;;;;;;;12.48;7.43;;;14.00;91.80;;;;;;4858469;29;20045;-86
2022/09/24 01:42:34;;;;;;;10.63;6.00;;;14.00;91.80;;;;;;4892208;29;20048;-86
2022/09/24 01:45:02;;;;;;;11.07;6.45;;;14.00;91.80;;;;;;4896481;29;20125;-86
2022/09/24 01:47:34;;;;;;;12.00;6.50;;;14.00;92.10;;;;;;4889118;29;20100;-86
2022/09/24 01:50:02;;;;;;;10.27;6.40;;;14.00;91.80;;;;;;4890751;29;20056;-86
2022/09/24 01:52:59;;;;;;;10.43;6.15;;;14.00;91.80;;;;;;4866590;29;20498;-86
2022/09/24 01:55:33;;;;;;;11.15;6.90;;;14.10;91.80;;;;;;4908171;29;20044;-86
2022/09/24 01:58:07;;;;;;;13.50;7.43;;;14.00;91.80;;;;;;4897345;29;20055;-87
2022/09/24 02:00:45;;;;;;;12.15;7.07;;;14.10;91.80;;;;;;4870042;29;20057;-86
2022/09/24 02:03:22;;;;;;;13.18;7.25;;;14.10;91.90;;;;;;4890957;29;20836;-87
2022/09/24 02:05:57;;;;;;;12.73;7.60;;;14.10;91.90;;;;;;4880658;29;20040;-86
2022/09/24 02:08:37;;;;;;;12.60;7.38;;;14.00;91.90;;;;;;4866179;29;20056;-87
2022/09/24 02:11:22;;;;;;;11.52;6.90;;;14.00;91.90;;;;;;4877338;29;20055;-87
2022/09/24 02:14:03;;;;;;;13.63;8.45;;;14.00;91.90;;;;;;4857802;29;20502;-87
2022/09/24 02:16:47;;;;;;;13.30;8.48;;;14.00;91.90;;;;;;4872729;29;20524;-86
2022/09/24 02:19:19;;;;;;;12.13;7.63;;;14.00;92.00;;;;;;4868227;29;20061;-86
2022/09/24 02:21:48;;;;;;;11.07;6.75;;;14.00;92.00;;;;;;4883638;29;20048;-86
2022/09/24 02:24:19;;;;;;;11.73;7.10;;;14.00;92.00;;;;;;4882542;29;20195;-86
2022/09/24 02:26:47;;;;;;;9.50;5.97;;;14.00;92.00;;;;;;4877838;29;20045;-86
2022/09/24 02:29:14;;;;;;;11.95;7.45;;;14.00;92.20;;;;;;4878396;29;20060;-86
2022/09/24 02:31:46;;;;;;;12.73;7.30;;;14.00;92.00;;;;;;4867207;29;20259;-86
2022/09/24 02:34:23;;;;;;;10.82;7.05;;;14.00;92.00;;;;;;4893172;29;20409;-86
2022/09/24 02:36:58;;;;;;;11.35;6.78;;;14.00;92.00;;;;;;4874199;29;20044;-86
2022/09/24 02:39:26;;;;;;;10.75;6.78;;;14.00;92.00;;;;;;4880766;29;20045;-86
2022/09/24 02:41:53;;;;;;;11.30;6.50;;;14.00;92.00;;;;;;4883274;29;20048;-86
2022/09/24 02:44:21;;;;;;;11.02;6.55;;;14.00;92.00;;;;;;4857367;29;20049;-86
2022/09/24 02:46:49;;;;;;;11.30;6.35;;;14.00;92.00;;;;;;4876596;29;20044;-86
2022/09/24 02:49:17;;;;;;;11.32;6.90;;;14.00;92.00;;;;;;4850517;29;20063;-86
2022/09/24 02:51:44;;;;;;;11.30;6.50;;;14.00;92.00;;;;;;4865376;29;20072;-86
2022/09/24 02:54:15;;;;;;;10.65;6.75;;;14.00;92.00;;;;;;4880303;29;20056;-86
2022/09/24 02:56:44;;;;;;;10.80;6.45;;;14.00;92.00;;;;;;4874294;29;20059;-86
2022/09/24 02:59:15;;;;;;;10.18;5.93;;;14.00;92.10;;;;;;4867222;29;20048;-86
2022/09/24 03:01:46;;;;;;;10.32;6.28;;;14.00;92.10;;;;;;4883919;29;20080;-86
2022/09/24 03:04:13;;;;;;;11.05;5.65;;;14.00;92.10;;;;;;4892463;29;20094;-86
2022/09/24 03:06:41;;;;;;;9.93;5.57;;;14.00;92.10;;;;;;4880602;29;20168;-86
2022/09/24 03:09:11;;;;;;;10.43;6.00;;;14.00;92.10;;;;;;4881996;29;20048;-86
2022/09/24 03:11:39;;;;;;;9.20;5.40;;;14.00;92.10;;;;;;4860119;29;20478;-86
2022/09/24 03:14:07;;;;;;;10.70;5.78;;;14.00;92.10;;;;;;4891738;29;20052;-86
2022/09/24 03:16:34;;;;;;;9.20;5.13;;;14.00;92.10;;;;;;4886744;29;20056;-86
2022/09/24 03:19:02;;;;;;;10.73;5.53;;;14.00;92.10;;;;;;4886152;29;20056;-85
2022/09/24 03:21:29;;;;;;;9.05;5.38;;;14.00;92.10;;;;;;4861738;29;20443;-86
2022/09/24 03:23:59;;;;;;;9.30;5.25;;;14.00;92.10;;;;;;4873416;29;20045;-86
2022/09/24 03:26:26;;;;;;;9.30;4.85;;;14.00;92.10;;;;;;4879010;29;20502;-86
2022/09/24 03:28:53;;;;;;;7.78;4.30;;;14.00;92.10;;;;;;4870195;29;20053;-84
2022/09/24 03:31:22;;;;;;;8.25;5.13;;;14.00;92.10;;;;;;4894982;29;20458;-84
2022/09/24 03:33:50;;;;;;;8.25;5.05;;;14.00;92.10;;;;;;4862850;29;20129;-84
2022/09/24 03:36:23;;;;;;;7.35;4.30;;;14.00;92.10;;;;;;4852510;29;20120;-84
2022/09/24 03:38:55;;;;;;;8.55;4.93;;;14.00;92.10;;;;;;4894195;29;20068;-84
2022/09/24 03:41:24;;;;;;;;;;;14.00;92.10;;;;;;4883877;29;20045;-84
2022/09/24 03:43:51;;;;;;;6.60;2.97;;;13.90;92.10;;;;;;4864341;29;19931;-84
2022/09/24 03:46:18;;;;;;;6.10;3.65;;;13.90;92.10;;;;;;4895808;29;20044;-84
2022/09/24 03:48:46;;;;;;;7.00;4.05;;;13.90;92.10;;;;;;4873530;29;20055;-84
2022/09/24 03:51:17;;;;;;;7.07;3.92;;;13.90;92.10;;;;;;4834099;29;20056;-84
2022/09/24 03:53:46;;;;;;;8.13;4.03;;;13.90;92.10;;;;;;4874457;29;20506;-84
2022/09/24 03:56:16;;;;;;;6.30;3.78;;;13.90;92.10;;;;;;4874787;29;20098;-83
2022/09/24 03:58:46;;;;;;;7.43;4.07;;;13.90;92.10;;;;;;4891884;29;20401;-84
2022/09/24 04:01:20;;;;;;;6.60;3.80;;;13.90;92.30;;;;;;4886106;29;20421;-84
2022/09/24 04:03:49;;;;;;;6.65;4.20;;;13.90;92.10;;;;;;4868083;29;20498;-83
2022/09/24 04:06:16;;;;;;;8.70;4.43;;;13.90;92.10;;;;;;4871160;29;20051;-83
2022/09/24 04:08:49;;;;;;;7.18;4.45;;;13.90;92.10;;;;;;4870281;29;20105;-84
2022/09/24 04:11:16;;;;;;;7.05;4.13;;;13.90;92.10;;;;;;4872456;29;20107;-84
2022/09/24 04:13:44;;;;;;;6.90;4.18;;;13.90;92.10;;;;;;4875355;29;20524;-84
2022/09/24 04:16:11;;;;;;;7.53;4.32;;;13.90;92.10;;;;;;4879207;29;20391;-84
2022/09/24 04:18:38;;;;;;;8.85;4.95;;;13.90;92.10;;;;;;4877624;29;20477;-84
2022/09/24 04:21:07;;;;;;;7.38;3.97;;;13.90;92.10;;;;;;4883051;29;20056;-84
2022/09/24 04:23:37;;;;;;;7.25;3.78;;;13.90;92.10;;;;;;4893279;29;20505;-84
2022/09/24 04:26:05;;;;;;;7.07;4.07;;;13.90;92.10;;;;;;4884382;29;20585;-84
2022/09/24 04:28:34;;;;;;;7.38;4.20;;;14.00;92.10;;;;;;4894074;29;20059;-84
2022/09/24 04:31:02;;;;;;;8.98;4.28;;;14.00;92.10;;;;;;4882693;29;20044;-84
2022/09/24 04:33:29;;;;;;;7.05;4.43;;;14.00;92.10;;;;;;4889333;29;20052;-84
2022/09/24 04:35:56;;;;;;;8.25;4.30;;;14.00;92.10;;;;;;4851750;29;20054;-84
2022/09/24 04:38:23;;;;;;;8.23;4.65;;;14.00;92.10;;;;;;4900030;29;20051;-84
2022/09/24 04:40:51;;;;;;;7.57;4.40;;;13.90;92.00;;;;;;4890720;29;20036;-84
2022/09/24 04:43:18;;;;;;;6.53;4.25;;;13.90;92.10;;;;;;4865699;29;20048;-85
2022/09/24 04:45:45;;;;;;;7.40;4.25;;;13.90;92.10;;;;;;4857662;29;20530;-83
2022/09/24 04:48:16;;;;;;;7.78;4.38;;;13.90;92.10;;;;;;4885609;29;20041;-83
2022/09/24 04:50:43;;;;;;;7.63;4.50;;;13.90;92.10;;;;;;4870626;29;20050;-86
2022/09/24 04:53:13;;;;;;;8.98;5.30;;;13.90;92.10;;;;;;4861202;29;20501;-86
2022/09/24 04:55:43;;;;;;;8.60;5.32;;;13.90;92.10;;;;;;4891225;29;20048;-85
2022/09/24 04:58:25;;;;;;;9.43;5.50;;;13.90;92.10;;;;;;4884270;29;20140;-85
2022/09/24 05:00:55;;;;;;;8.25;4.75;;;13.90;92.10;;;;;;4864358;29;20077;-85
2022/09/24 05:03:22;;;;;;;9.50;5.43;;;13.90;92.20;;;;;;4886031;29;20071;-85
2022/09/24 05:05:49;;;;;;;9.77;5.47;;;13.90;92.20;;;;;;4857116;29;20067;-85
2022/09/24 05:08:16;;;;;;;9.20;5.38;;;13.90;92.20;;;;;;4876740;29;20044;-85
2022/09/24 05:10:43;;;;;;;8.05;4.57;;;13.90;92.20;;;;;;4866440;29;20040;-86
2022/09/24 05:13:10;;;;;;;8.98;5.13;;;13.90;92.20;;;;;;4869679;29;20052;-86
2022/09/24 05:15:37;;;;;;;9.88;5.80;;;13.90;92.20;;;;;;4872642;29;20127;-86
2022/09/24 05:18:09;;;;;;;10.30;5.88;;;13.90;92.20;;;;;;4860917;29;20513;-86
2022/09/24 05:20:36;;;;;;;9.80;5.95;;;13.90;92.20;;;;;;4904199;29;20383;-86
2022/09/24 05:23:04;;;;;;;10.20;6.15;;;13.80;92.20;;;;;;4871968;29;20130;-86
2022/09/24 05:25:31;;;;;;;8.10;5.03;;;13.90;92.20;;;;;;4876838;29;20059;-85
2022/09/24 05:27:58;;;;;;;8.90;5.28;;;13.90;92.20;;;;;;4907106;29;20049;-84
2022/09/24 05:30:25;;;;;;;10.27;5.38;;;13.90;92.20;;;;;;4906228;29;20048;-84
2022/09/24 05:32:52;;;;;;;8.45;5.00;;;13.90;92.20;;;;;;4894844;29;20079;-83
2022/09/24 05:35:21;;;;;;;9.38;5.07;;;13.90;92.20;;;;;;4858216;29;20079;-83
2022/09/24 05:37:51;;;;;;;10.48;5.85;;;13.90;92.20;;;;;;4869196;29;20525;-82
2022/09/24 05:43:06;;;;;;;7.53;4.47;;;13.90;92.20;;;;;;4872843;29;20049;-84
2022/09/24 05:45:35;;;;;;;9.10;4.80;;;13.90;92.20;;;;;;4877473;29;20037;-83
2022/09/24 05:48:02;;;;;;;9.38;5.28;;;13.90;92.20;;;;;;4851345;29;20552;-85
2022/09/24 05:50:30;;;;;;;10.15;6.32;;;13.90;92.20;;;;;;4857032;29;20040;-84
2022/09/24 05:52:57;;;;;;;9.05;5.43;;;13.90;92.20;;;;;;4857099;29;20147;-85
2022/09/24 05:55:24;;;;;;;9.70;5.90;;;13.90;92.20;;;;;;4899469;29;20079;-84
2022/09/24 05:58:06;;;;;;;11.90;5.93;;;13.90;92.20;;;;;;4899439;29;20044;-85
2022/09/24 06:00:34;;;;;;;9.27;5.57;;;13.90;92.20;;;;;;4900492;29;20050;-85
2022/09/24 06:03:05;;;;;;;10.23;6.15;;;13.90;92.20;;;;;;4878722;29;20098;-85
2022/09/24 06:05:34;;;;;;;9.18;5.63;;;13.90;92.20;;;;;;4883735;29;20084;-83
2022/09/24 06:08:02;;;;;;;10.25;6.15;;;13.90;92.20;;;;;;4904302;29;20397;-85
2022/09/24 06:10:32;;;;;;;7.72;4.93;;;14.00;92.20;;;;;;4853056;29;20052;-85
2022/09/24 06:13:03;;;;;;;8.68;5.35;;;13.90;92.20;;;;;;4893165;29;20060;-85
2022/09/24 06:15:31;;;;;;;7.55;4.60;;;13.90;92.20;;;;;;4890841;29;20044;-84
2022/09/24 06:17:58;;;;;;;8.82;4.95;;;14.00;92.20;;;;;;4878242;29;20525;-84
2022/09/24 06:20:25;;;;;;;9.82;5.68;;;14.00;92.20;;;;;;4875836;29;20405;-83
2022/09/24 06:22:59;;;;;;;8.52;5.65;;;14.00;92.20;;;;;;4884703;29;20051;-83
2022/09/24 06:25:27;;;;;;;7.88;4.85;;;14.00;92.20;;;;;;4899808;29;20043;-83
2022/09/24 06:28:02;;;;;;;8.85;5.45;;;14.00;92.20;;;;;;4870877;29;20068;-83
2022/09/24 06:30:32;;;;;;;9.98;5.50;;;14.00;92.20;;;;;;4883896;29;20052;-84
2022/09/24 06:33:04;;;;;;;8.77;5.55;;;14.00;92.20;;;;;;4870791;29;20056;-83
2022/09/24 06:35:42;;;;;;;7.32;5.20;;;14.00;92.20;;;;;;4874165;29;20053;-81
2022/09/24 06:38:11;;;;;;;8.93;5.30;;;14.00;92.10;;;;;;4866317;29;20059;-82
2022/09/24 06:40:38;;;;;;;8.35;5.22;;;14.00;92.20;;;;;;4890154;29;20123;-82
2022/09/24 06:43:06;;;;;;;8.77;5.00;;;14.00;92.20;;;;;;4855368;29;20059;-81
2022/09/24 06:45:36;;;;;;;7.13;5.20;;;14.00;92.20;;;;;;4888222;29;20075;-82
2022/09/24 06:48:04;;;;;;;8.45;5.45;;;14.10;92.20;;;;;;4848525;29;20052;-81
2022/09/24 06:50:33;;;;;;;7.88;4.72;;;14.10;92.20;;;;;;4846928;29;20155;-81
2022/09/24 06:53:04;;;;;;;9.27;5.80;;;14.10;92.20;;;;;;4893177;29;20052;-81
2022/09/24 06:55:32;;;;;;;8.13;5.68;;;14.10;92.20;;;;;;4876719;29;20052;-82
2022/09/24 06:58:14;;;;;;;9.27;6.07;;;14.10;92.20;;;;;;4883932;29;20051;-81
2022/09/24 07:00:44;;;;;;;10.30;6.67;;;14.10;92.20;;;;;;4881074;29;20049;-81
2022/09/24 07:03:14;;;;;;;9.63;6.13;;;14.00;92.20;;;;;;4884224;29;20378;-82
2022/09/24 07:05:42;;;;;;;9.20;5.63;;;14.00;92.20;;;;;;4897335;29;20056;-81
2022/09/24 07:08:09;;;;;;;10.40;6.00;;;14.00;92.20;;;;;;4888938;29;20092;-82
2022/09/24 07:10:41;;;;;;;8.57;5.25;;;14.00;92.20;;;;;;4855704;29;20131;-81
2022/09/24 07:13:12;;;;;;;8.57;5.70;;;14.00;92.30;;;;;;4850347;29;20052;-81
2022/09/24 07:15:41;;;;;;;11.73;6.50;;;14.00;92.30;;;;;;4883043;29;20079;-82
2022/09/24 07:18:09;;;;;;;8.98;6.50;;;14.00;92.30;;;;;;4876680;29;20051;-84
2022/09/24 07:20:36;;;;;;;10.18;5.93;;;14.00;92.30;;;;;;4882678;29;20048;-84
2022/09/24 07:23:05;;;;;;;9.82;6.80;;;14.00;92.30;;;;;;4879447;29;20132;-84
2022/09/24 07:25:32;;;;;;;8.63;5.75;;;14.00;92.30;;;;;;4857512;29;20077;-84
2022/09/24 07:28:04;;;;;;;8.75;5.72;;;14.00;92.30;;;;;;4891998;29;20120;-81
2022/09/24 07:30:32;;;;;;;10.20;6.20;;;14.00;92.30;;;;;;4891352;29;20103;-81
2022/09/24 07:33:00;;;;;;;8.77;5.88;;;14.00;92.60;;;;;;4901031;29;20284;-82
2022/09/24 07:35:28;;;;;;;9.23;5.90;;;14.00;92.40;;;;;;4868383;29;20064;-81
2022/09/24 07:38:04;;;;;;;8.73;5.70;;;14.00;92.40;;;;;;4882962;29;20044;-81
2022/09/24 07:40:32;;;;;;;9.80;6.05;;;14.00;92.40;;;;;;4875445;29;20533;-81
2022/09/24 07:42:59;;;;;;;10.63;6.53;;;14.10;92.40;;;;;;4877820;29;20095;-81
2022/09/24 07:45:28;;;;;;;10.27;6.90;;;14.00;92.40;;;;;;4864851;29;20100;-83
2022/09/24 07:48:00;;;;;;;11.35;6.38;;;14.00;92.40;;;;;;4868301;29;20047;-84
2022/09/24 07:50:29;;;;;;;12.07;6.45;;;14.00;92.40;;;;;;4861545;29;20059;-83
2022/09/24 07:52:56;;;;;;;10.13;6.00;;;14.00;92.40;;;;;;4886670;29;20096;-82
2022/09/24 07:55:24;;;;;;;9.25;6.35;;;14.00;92.70;;;;;;4897627;29;20608;-83
2022/09/24 07:57:53;;;;;;;9.75;5.43;;;14.00;92.50;;;;;;4890680;29;20084;-84
2022/09/24 08:00:22;;;;;;;7.45;5.47;;;14.10;92.50;;;;;;4897474;29;20084;-81
2022/09/24 08:02:52;;;;;;;11.05;6.78;;;14.10;92.50;;;;;;4880302;29;20151;-81
2022/09/24 08:05:19;;;;;;;8.45;5.90;;;14.10;92.50;;;;;;4880494;29;20330;-82
2022/09/24 08:07:54;;;;;;;10.63;6.90;;;14.10;92.40;;;;;;4886794;29;20048;-82
2022/09/24 08:10:22;;;;;;;11.55;7.13;;;14.20;92.40;;;;;;4871812;29;20108;-82
2022/09/24 08:12:52;;;;;;;10.43;6.30;;;14.20;92.40;;;;;;4885232;29;20048;-82
2022/09/24 08:15:21;;;;;;;9.73;6.03;;;14.20;92.40;;;;;;4876008;29;20057;-81
2022/09/24 08:17:48;;;;;;;10.10;7.13;;;14.20;92.40;;;;;;4878124;29;20078;-81
2022/09/24 08:20:16;;;;;;;9.45;6.22;;;14.20;92.40;;;;;;4854658;29;20076;-81
2022/09/24 08:22:43;;;;;;;9.18;6.10;;;14.20;92.40;;;;;;4853494;29;20088;-81
2022/09/24 08:25:10;;;;;;;9.35;5.72;;;14.20;92.40;;;;;;4901870;29;20044;-82
2022/09/24 08:27:37;;;;;;;9.25;6.43;;;14.30;92.40;;;;;;4857423;29;20427;-84
2022/09/24 08:30:06;;;;;;;8.43;5.68;;;14.30;92.40;;;;;;4873910;29;20067;-84
2022/09/24 08:32:38;;;;;;;9.05;6.18;;;14.30;92.40;;;;;;4873982;29;20053;-82
2022/09/24 08:35:07;;;;;;;10.25;5.93;;;14.40;92.40;;;;;;4892880;29;20591;-81
2022/09/24 08:37:37;;;;;;;10.43;5.68;;;14.40;92.40;;;;;;4879644;29;20566;-81
2022/09/24 08:40:04;;;;;;;9.43;5.93;;;14.40;92.40;;;;;;4870727;29;20401;-81
2022/09/24 08:42:48;;;;;;;9.35;5.85;;;14.40;92.30;;;;;;4870763;29;20512;-81
2022/09/24 08:48:18;;;;;;;11.27;6.65;;;14.40;92.30;;;;;;4907602;29;20036;-81
2022/09/24 08:50:59;;;;;;;6.60;4.78;;;14.40;92.40;;;;;;4880972;29;20469;-81
2022/09/24 08:53:38;;;;;;;9.65;5.88;;;14.40;92.40;;;;;;4882492;29;20143;-81
2022/09/24 08:56:07;;;;;;;8.82;5.30;;;14.30;92.40;;;;;;4884656;29;20079;-81
2022/09/24 08:59:02;;;;;;;7.88;4.93;;;14.40;92.50;;;;;;4885173;29;20052;-81
2022/09/24 09:01:54;;;;;;;7.53;4.90;;;14.40;92.50;;;;;;4880175;29;20060;-81
2022/09/24 09:04:26;;;;;;;8.48;5.15;;;14.40;92.50;;;;;;4887870;29;20511;-83
2022/09/24 09:07:20;;;;;;;8.68;5.38;;;14.40;92.50;;;;;;4889875;29;20091;-84
2022/09/24 09:10:03;;;;;;;9.25;5.50;;;14.40;92.50;;;;;;4879159;29;20072;-83
2022/09/24 09:12:46;;;;;;;8.45;5.15;;;14.40;92.50;;;;;;4891859;29;20075;-84
2022/09/24 09:15:36;;;;;;;8.63;5.03;;;14.50;92.50;;;;;;4891651;29;20052;-83
2022/09/24 09:18:32;;;;;;;9.00;4.88;;;14.40;92.50;;;;;;4879790;29;20047;-83
2022/09/24 09:21:15;;;;;;;9.30;5.65;;;14.50;92.50;;;;;;4887027;29;20048;-83
2022/09/24 09:23:50;;;;;;;9.55;5.57;;;14.50;92.50;;;;;;4890842;29;20045;-83
2022/09/24 09:26:19;;;;;;;9.88;6.13;;;14.40;92.50;;;;;;4878681;29;20045;-83
2022/09/24 09:28:47;;;;;;;8.40;5.70;;;14.50;92.50;;;;;;4885357;29;20127;-83
2022/09/24 09:31:32;;;;;;;10.90;5.55;;;14.40;92.50;;;;;;4870042;29;20089;-83
2022/09/24 09:34:38;;;;;;;7.53;5.22;;;14.40;92.50;;;;;;4889893;29;20052;-83
2022/09/24 09:37:29;;;;;;;9.82;5.82;;;14.50;92.50;;;;;;4892156;29;20060;-83
2022/09/24 09:40:01;;;;;;;7.22;5.03;;;14.50;92.50;;;;;;4896996;29;20123;-83
2022/09/24 09:42:35;;;;;;;7.13;4.82;;;14.40;92.50;;;;;;4891655;29;20044;-83
2022/09/24 09:45:27;;;;;;;6.57;4.90;;;14.50;92.50;;;;;;4887132;29;20048;-84
2022/09/24 09:47:58;;;;;;;6.72;4.38;;;14.60;92.50;;;;;;4888190;29;20036;-83
2022/09/24 09:50:46;;;;;;;7.32;4.68;;;14.60;92.50;;;;;;4891536;29;20044;-83
2022/09/24 09:53:25;;;;;;;7.18;4.63;;;14.60;92.50;;;;;;4870538;29;20057;-83
2022/09/24 09:56:02;;;;;;;8.05;4.82;;;14.60;92.50;;;;;;4894698;29;20525;-84
2022/09/24 09:58:39;;;;;;;7.18;4.63;;;14.70;92.50;;;;;;4893086;29;20091;-84
2022/09/24 10:01:12;;;;;;;5.57;3.72;;;14.60;92.50;;;;;;4858976;29;20139;-84
2022/09/24 10:03:51;;;;;;;9.52;5.45;;;14.70;92.50;;;;;;4887371;29;20465;-84
2022/09/24 10:06:27;;;;;;;8.20;5.13;;;14.60;92.40;;;;;;4850487;29;20410;-84
2022/09/24 10:09:04;;;;;;;8.00;4.95;;;14.60;92.70;;;;;;4876434;29;20048;-84
2022/09/24 10:11:31;;;;;;;8.27;5.47;;;14.60;92.50;;;;;;4870228;29;20045;-84
2022/09/24 10:14:08;;;;;;;8.82;5.65;;;14.60;92.50;;;;;;4867861;29;20544;-83
2022/09/24 10:16:42;;;;;;;13.38;7.22;;;14.60;92.50;;;;;;4909565;29;20040;-84
2022/09/24 10:19:21;;;;;;;11.15;6.70;;;14.60;92.80;;;;;;4879329;29;20560;-84
2022/09/24 10:21:50;;;;;;;10.85;6.07;;;14.50;92.50;;;;;;4891353;29;20044;-84
2022/09/24 10:24:21;;;;;;;11.85;8.27;;;14.50;92.50;;;;;;4858681;29;20036;-84
2022/09/24 10:26:49;;;;;;;9.80;6.27;;;14.40;92.70;;;;;;4876821;29;20044;-84
2022/09/24 10:32:19;;;;;;;8.50;5.70;;;14.40;92.80;;;;;;4862168;29;20084;-84
2022/09/24 10:35:00;;;;;;;10.45;6.95;;;14.40;92.80;;;;;;4894392;29;20055;-84
2022/09/24 10:37:28;;;;;;;11.13;6.53;;;14.40;92.80;;;;;;4867491;29;20055;-84
2022/09/24 10:40:12;;;;;;;11.48;6.47;;;14.40;92.80;;;;;;4868831;29;20131;-84
2022/09/24 10:42:39;;;;;;;9.15;5.55;;;14.40;92.80;;;;;;4887582;29;20049;-84
2022/09/24 10:45:13;;;;;;;9.85;5.78;;;14.40;92.80;;;;;;4898117;29;20060;-84
2022/09/24 10:48:07;;;;;;;9.18;5.85;;;14.50;92.80;;;;;;4884054;29;20044;-84
2022/09/24 10:50:47;;;;;;;8.00;5.30;;;14.60;92.80;;;;;;4876370;29;20052;-84
2022/09/24 10:53:30;;;;;;;10.52;6.15;;;14.50;92.80;;;;;;4870389;29;20052;-84
2022/09/24 10:56:20;;;;;;;9.02;5.25;;;14.60;92.80;;;;;;4860145;29;20049;-84
2022/09/24 10:59:07;;;;;;;7.50;4.85;;;14.50;92.80;;;;;;4875151;29;20447;-84
2022/09/24 11:02:02;;;;;;;8.57;5.53;;;14.50;92.90;;;;;;4866527;29;20101;-84
2022/09/24 11:04:55;;;;;;;8.70;5.05;;;14.50;92.80;;;;;;4852813;29;20101;-84
2022/09/24 11:07:34;;;;;;;;;;;14.60;92.90;;;;;;4854101;29;20063;-83
2022/09/24 11:10:22;;;;;;;9.93;4.65;;;14.50;92.90;;;;;;4867895;29;19924;-84
2022/09/24 11:13:26;;;;;;;7.85;4.97;;;14.50;92.90;;;;;;4862144;29;20466;-82
2022/09/24 11:16:37;;;;;;;8.80;4.85;;;14.50;92.90;;;;;;4862016;29;20049;-82
2022/09/24 11:19:39;;;;;;;6.80;4.43;;;14.60;92.90;;;;;;4879860;29;20067;-82
2022/09/24 11:22:13;;;;;;;7.22;4.40;;;14.60;92.90;;;;;;4854394;29;20063;-82
2022/09/24 11:24:57;;;;;;;8.10;5.40;;;14.60;92.90;;;;;;4859323;29;20486;-82
2022/09/24 11:27:51;;;;;;;7.97;5.38;;;14.60;92.90;;;;;;4870363;29;20140;-82
2022/09/24 11:30:49;;;;;;;10.60;6.45;;;14.60;92.90;;;;;;4857301;29;20053;-82
2022/09/24 11:33:20;;;;;;;8.52;5.22;;;14.50;92.90;;;;;;4874995;29;20065;-82
2022/09/24 11:36:14;;;;;;;10.60;6.45;;;14.50;93.00;;;;;;4878049;29;20450;-82
2022/09/24 11:39:03;;;;;;;9.55;6.20;;;14.50;93.00;;;;;;4866589;29;20160;-82
2022/09/24 11:41:33;;;;;;;8.68;5.57;;;14.50;93.00;;;;;;4888318;29;20132;-82
2022/09/24 11:44:42;;;;;;;8.05;5.07;;;14.50;93.00;;;;;;4861690;29;20586;-82
2022/09/24 11:47:46;;;;;;;7.65;5.10;;;14.50;93.00;;;;;;4810353;29;20181;-82
2022/09/24 11:50:23;;;;;;;9.57;5.90;;;14.60;93.00;;;;;;4875336;29;20052;-82
2022/09/24 11:53:12;;;;;;;10.48;6.35;;;14.60;93.00;;;;;;4873984;29;20126;-82
2022/09/24 11:55:58;;;;;;;7.63;5.03;;;14.60;93.00;;;;;;4876898;29;20055;-82
2022/09/24 11:58:30;;;;;;;11.43;5.75;;;14.60;93.00;;;;;;4869216;29;20521;-82
2022/09/24 12:01:05;;;;;;;9.77;5.93;;;14.60;93.00;;;;;;4868404;29;20844;-82
2022/09/24 12:03:59;;;;;;;10.57;6.72;;;14.70;93.00;;;;;;4862095;29;20085;-82
2022/09/24 12:06:30;;;;;;;10.88;7.57;;;14.60;92.90;;;;;;4849064;29;20129;-82
2022/09/24 12:09:20;;;;;;;10.10;7.15;;;14.50;92.90;;;;;;4885008;29;20053;-82
2022/09/24 12:12:09;;;;;;;10.80;7.15;;;14.60;93.00;;;;;;4876031;29;20059;-83
2022/09/24 12:14:39;;;;;;;10.55;5.90;;;14.50;93.00;;;;;;4870818;29;20493;-82
2022/09/24 12:17:12;;;;;;;8.40;5.57;;;14.40;93.00;;;;;;4875954;29;20052;-82
2022/09/24 12:19:56;;;;;;;11.38;7.53;;;14.40;93.10;;;;;;4888212;29;20059;-83
2022/09/24 12:22:26;;;;;;;12.10;7.78;;;14.40;93.20;;;;;;4872184;29;20047;-83
2022/09/24 12:24:58;;;;;;;9.07;6.05;;;14.30;93.20;;;;;;4879808;29;20572;-82
2022/09/24 12:27:37;;;;;;;10.38;6.53;;;14.30;93.30;;;;;;4864236;29;20084;-83
2022/09/24 12:33:27;;;;;;;7.90;4.78;;;14.50;93.10;;;;;;4879473;29;20045;-83
2022/09/24 12:36:09;;;;;;;9.93;5.88;;;14.50;93.10;;;;;;4870721;29;20125;-83
2022/09/24 12:38:46;;;;;;;9.38;5.80;;;14.60;93.10;;;;;;4879287;29;20041;-83
2022/09/24 12:41:38;;;;;;;8.70;5.95;;;14.60;93.10;;;;;;4874672;29;20516;-83
2022/09/24 12:44:11;;;;;;;6.93;4.47;;;14.60;93.10;;;;;;4873211;29;20040;-83
2022/09/24 12:47:01;;;;;;;7.43;4.60;;;14.60;93.10;;;;;;4851128;29;20410;-84
2022/09/24 12:49:36;;;;;;;8.63;5.60;;;14.60;93.10;;;;;;4855652;29;20051;-82
2022/09/24 12:52:22;;;;;;;10.25;5.22;;;14.60;93.10;;;;;;4851800;29;20052;-82
2022/09/24 12:54:59;;;;;;;13.15;5.15;;;14.60;93.20;;;;;;4872390;29;20129;-83
2022/09/24 12:57:52;;;;;;;10.15;5.03;;;14.60;93.20;;;;;;4880239;29;20048;-80
2022/09/24 13:00:34;;;;;;;;;;;14.60;93.20;;;;;;4877405;29;20145;-80
2022/09/24 13:03:04;;;;;;;7.55;4.78;;;14.60;93.20;;;;;;4872071;29;19928;-79
2022/09/24 13:05:46;;;;;;;11.18;6.13;;;14.60;93.20;;;;;;4881005;29;20105;-79
2022/09/24 13:08:15;;;;;;;11.88;6.28;;;14.60;93.20;;;;;;4892983;29;20375;-80
2022/09/24 13:10:59;;;;;;;11.10;7.20;;;14.50;93.20;;;;;;4888335;29;20131;-79
2022/09/24 13:13:28;;;;;;;11.93;6.97;;;14.40;93.30;;;;;;4872577;29;20049;-79
2022/09/24 13:16:01;;;;;;;10.43;6.30;;;14.40;93.40;;;;;;4898687;29;20398;-79
2022/09/24 13:18:29;;;;;;;10.40;5.95;;;14.40;93.40;;;;;;4856098;29;20108;-79
2022/09/24 13:21:05;;;;;;;8.90;6.03;;;14.50;93.40;;;;;;4880935;29;20054;-79
2022/09/24 13:23:47;;;;;;;9.30;5.85;;;14.50;93.40;;;;;;4884910;29;20055;-80
2022/09/24 13:26:23;;;;;;;7.93;5.45;;;14.60;93.30;;;;;;4890966;29;20135;-80
2022/09/24 13:28:57;;;;;;;9.13;5.72;;;14.60;93.30;;;;;;4885296;29;20432;-80
2022/09/24 13:31:27;;;;;;;10.77;6.70;;;14.60;93.30;;;;;;4881554;29;20087;-79